Time;durP1;ratioP1;P1;durP2;ratioP2;P2;SDS_P1;SDS_P2;PMS_P1;PMS_P2;Temp;Humidity;BMP_temperature;BMP_pressure;BME280_temperature;BME280_humidity;BME280_pressure;Samples;Min_cycle;Max_cycle;Signal;HPM_P1;HPM_P2
2021/04/15 00:00:40;;;;;;;2.10;1.80;;;4.40;99.90;;;;;;5060029;28;20210;-85
2021/04/15 00:03:09;;;;;;;2.55;1.85;;;4.00;99.90;;;;;;5060467;28;20229;-86
2021/04/15 00:05:36;;;;;;;2.25;1.67;;;4.30;99.90;;;;;;5059132;28;20183;-85
2021/04/15 00:08:08;;;;;;;2.38;2.20;;;4.10;99.90;;;;;;5058755;28;20226;-85
2021/04/15 00:10:36;;;;;;;2.10;2.00;;;4.00;99.90;;;;;;5057907;28;20256;-86
2021/04/15 00:13:04;;;;;;;10.98;2.40;;;4.00;99.90;;;;;;5059202;28;20202;-86
2021/04/15 00:15:30;;;;;;;2.88;2.10;;;4.00;99.90;;;;;;5064111;28;20210;-87
2021/04/15 00:20:33;;;;;;;2.95;2.00;;;4.00;99.90;;;;;;5055433;28;20559;-80
2021/04/15 00:22:59;;;;;;;4.00;2.40;;;4.00;99.90;;;;;;5059336;28;20211;-79
2021/04/15 00:25:26;;;;;;;4.10;2.40;;;4.10;99.90;;;;;;5068981;28;20207;-79
2021/04/15 00:27:53;;;;;;;2.30;2.10;;;4.10;99.90;;;;;;5069057;28;20203;-79
2021/04/15 00:30:20;;;;;;;2.55;1.92;;;4.10;99.90;;;;;;5049179;28;20224;-79
2021/04/15 00:32:46;;;;;;;2.15;1.88;;;4.00;99.90;;;;;;5049508;28;20693;-79
2021/04/15 00:35:13;;;;;;;2.75;2.35;;;4.00;99.90;;;;;;5048998;28;20204;-78
2021/04/15 00:37:40;;;;;;;1.98;1.77;;;3.90;99.90;;;;;;5045300;28;20199;-78
2021/04/15 00:40:08;;;;;;;2.47;2.10;;;3.90;99.90;;;;;;5042089;28;20223;-80
2021/04/15 00:42:36;;;;;;;2.47;1.83;;;4.00;99.90;;;;;;5039005;28;20250;-79
2021/04/15 00:45:09;;;;;;;2.40;2.20;;;4.00;99.90;;;;;;5039876;28;20233;-80
2021/04/15 00:47:35;;;;;;;2.70;2.25;;;4.00;99.90;;;;;;5040004;28;20191;-80
2021/04/15 00:50:05;;;;;;;2.25;1.90;;;3.90;99.90;;;;;;5039867;28;20254;-79
2021/04/15 00:52:35;;;;;;;3.35;2.83;;;4.00;99.90;;;;;;5040266;28;20199;-80
2021/04/15 00:55:08;;;;;;;2.50;2.28;;;3.90;99.90;;;;;;5038193;28;20188;-79
2021/04/15 00:57:38;;;;;;;1.92;1.83;;;3.90;99.90;;;;;;5039894;28;20245;-77
2021/04/15 01:00:07;;;;;;;2.15;2.05;;;3.80;99.90;;;;;;5047444;28;20220;-77
2021/04/15 01:02:34;;;;;;;9.02;2.22;;;3.90;99.90;;;;;;5041668;28;20247;-80
2021/04/15 01:05:08;;;;;;;1.85;1.75;;;3.90;99.90;;;;;;5039318;28;20199;-80
2021/04/15 01:07:35;;;;;;;2.67;2.30;;;3.90;99.90;;;;;;5040774;28;20631;-79
2021/04/15 01:10:01;;;;;;;2.75;2.60;;;3.80;99.90;;;;;;5041282;28;20745;-80
2021/04/15 01:12:39;;;;;;;2.15;2.05;;;3.80;99.90;;;;;;5043932;28;20203;-79
2021/04/15 01:15:15;;;;;;;2.65;2.45;;;3.80;99.90;;;;;;5051957;28;20195;-78
2021/04/15 01:17:50;;;;;;;3.40;2.70;;;3.90;99.90;;;;;;5051717;28;20259;-79
2021/04/15 01:20:48;;;;;;;3.17;2.25;;;3.80;99.90;;;;;;5049000;28;20231;-79
2021/04/15 01:23:24;;;;;;;2.90;2.45;;;3.70;99.90;;;;;;5040437;28;20281;-79
2021/04/15 01:26:37;;;;;;;3.05;2.60;;;3.80;99.90;;;;;;5037346;28;20226;-79
2021/04/15 01:29:18;;;;;;;3.10;2.30;;;3.90;99.90;;;;;;5031072;28;20230;-80
2021/04/15 01:31:54;;;;;;;4.43;2.72;;;3.90;99.90;;;;;;5036313;28;20180;-79
2021/04/15 01:34:26;;;;;;;2.85;2.40;;;3.80;99.90;;;;;;5036938;28;20192;-79
2021/04/15 01:36:59;;;;;;;3.08;2.67;;;3.80;99.90;;;;;;5036917;28;20218;-79
2021/04/15 01:39:32;;;;;;;3.60;2.53;;;3.80;99.90;;;;;;5040500;28;20235;-80
2021/04/15 01:42:03;;;;;;;2.97;2.78;;;3.80;99.90;;;;;;5036902;28;20208;-79
2021/04/15 01:44:37;;;;;;;7.47;2.42;;;3.80;99.90;;;;;;5037349;28;20188;-80
2021/04/15 01:47:06;;;;;;;2.95;2.67;;;3.80;99.90;;;;;;5037196;28;20266;-80
2021/04/15 01:49:38;;;;;;;3.13;2.83;;;4.10;99.90;;;;;;5036264;28;20250;-80
2021/04/15 01:52:08;;;;;;;3.60;2.88;;;3.80;99.90;;;;;;5036745;28;20184;-80
2021/04/15 01:54:37;;;;;;;2.75;2.53;;;3.70;99.90;;;;;;5036795;28;20665;-80
2021/04/15 01:57:13;;;;;;;2.97;2.55;;;3.70;99.90;;;;;;5036315;28;20625;-80
2021/04/15 01:59:43;;;;;;;3.40;2.65;;;3.70;99.90;;;;;;5035654;28;20614;-80
2021/04/15 02:02:14;;;;;;;3.10;2.53;;;3.70;99.90;;;;;;5039736;28;20628;-80
2021/04/15 02:04:44;;;;;;;5.10;2.78;;;3.60;99.90;;;;;;5040398;28;20187;-80
2021/04/15 02:07:15;;;;;;;2.53;2.33;;;3.70;99.90;;;;;;5039604;28;20697;-79
2021/04/15 02:09:44;;;;;;;9.73;2.75;;;3.60;99.90;;;;;;5039688;28;20223;-80
2021/04/15 02:12:15;;;;;;;3.33;2.90;;;3.70;99.90;;;;;;5040578;28;20619;-80
2021/04/15 02:14:45;;;;;;;3.65;3.15;;;3.70;99.90;;;;;;5040465;28;20214;-80
2021/04/15 02:17:12;;;;;;;3.03;2.72;;;3.70;99.90;;;;;;5039356;28;20242;-80
2021/04/15 02:19:43;;;;;;;3.15;2.90;;;3.80;99.90;;;;;;5039292;28;20662;-79
2021/04/15 02:22:14;;;;;;;5.93;2.90;;;3.80;99.90;;;;;;5039795;28;20214;-80
2021/04/15 02:24:44;;;;;;;2.85;2.65;;;3.50;99.90;;;;;;5051571;28;20192;-78
2021/04/15 02:27:17;;;;;;;7.10;3.00;;;3.70;99.90;;;;;;5044370;28;20635;-80
2021/04/15 02:29:49;;;;;;;8.00;3.40;;;3.70;99.90;;;;;;5044734;28;20234;-79
2021/04/15 02:32:19;;;;;;;4.80;2.45;;;3.70;99.90;;;;;;5050511;28;20643;-80
2021/04/15 02:34:48;;;;;;;4.43;3.25;;;3.70;99.90;;;;;;5040495;28;20239;-80
2021/04/15 02:37:18;;;;;;;3.25;2.33;;;3.60;99.90;;;;;;5039012;28;20231;-80
2021/04/15 02:39:47;;;;;;;4.20;2.78;;;3.60;99.90;;;;;;5039245;28;20648;-80
2021/04/15 02:42:18;;;;;;;5.40;3.15;;;3.50;99.90;;;;;;5038950;28;20227;-80
2021/04/15 02:44:49;;;;;;;4.32;3.33;;;3.50;99.90;;;;;;5039490;28;20192;-80
2021/04/15 02:47:19;;;;;;;2.55;2.40;;;3.60;99.90;;;;;;5039288;28;20202;-80
2021/04/15 02:49:46;;;;;;;3.22;2.80;;;3.50;99.90;;;;;;5039201;28;20625;-80
2021/04/15 02:52:17;;;;;;;4.40;3.03;;;3.50;99.90;;;;;;5039389;28;20258;-80
2021/04/15 02:54:46;;;;;;;4.80;2.67;;;3.40;99.90;;;;;;5038078;28;20441;-80
2021/04/15 02:57:16;;;;;;;5.82;2.90;;;3.40;99.90;;;;;;5039277;28;20257;-80
2021/04/15 02:59:47;;;;;;;6.72;3.13;;;3.40;99.90;;;;;;5039396;28;20273;-79
2021/04/15 03:02:18;;;;;;;4.43;3.45;;;3.40;99.90;;;;;;5038889;28;20270;-80
2021/04/15 03:04:52;;;;;;;3.63;2.75;;;3.40;99.90;;;;;;5039104;28;20234;-80
2021/04/15 03:07:19;;;;;;;6.63;3.40;;;3.50;99.90;;;;;;5038786;28;20195;-80
2021/04/15 03:09:48;;;;;;;7.50;3.40;;;3.40;99.90;;;;;;5039599;28;20453;-79
2021/04/15 03:12:19;;;;;;;4.00;3.65;;;3.10;99.90;;;;;;5037371;28;20681;-80
2021/04/15 03:14:51;;;;;;;4.65;3.53;;;3.40;99.90;;;;;;5039077;28;20673;-80
2021/04/15 03:17:21;;;;;;;4.68;4.07;;;3.30;99.90;;;;;;5039789;28;20235;-80
2021/04/15 03:19:51;;;;;;;5.90;3.78;;;3.20;99.90;;;;;;5038224;28;20262;-80
2021/04/15 03:22:23;;;;;;;4.72;4.20;;;3.10;99.90;;;;;;5038501;28;20583;-80
2021/04/15 03:24:51;;;;;;;4.13;3.72;;;3.30;99.90;;;;;;5038239;28;20188;-79
2021/04/15 03:27:27;;;;;;;5.00;4.05;;;3.20;99.90;;;;;;5038197;28;20208;-79
2021/04/15 03:30:00;;;;;;;6.85;4.22;;;3.10;99.90;;;;;;5040941;28;20265;-79
2021/04/15 03:32:33;;;;;;;7.32;4.38;;;3.20;99.90;;;;;;5047492;28;20184;-80
2021/04/15 03:35:06;;;;;;;11.27;4.70;;;3.20;99.90;;;;;;5038939;28;20199;-79
2021/04/15 03:37:38;;;;;;;7.47;4.85;;;3.20;99.90;;;;;;5038170;28;20198;-80
2021/04/15 03:40:07;;;;;;;8.38;4.70;;;3.10;99.90;;;;;;5037481;28;20953;-79
2021/04/15 03:42:38;;;;;;;6.70;4.60;;;3.00;99.90;;;;;;5019672;28;20499;-79
2021/04/15 03:45:11;;;;;;;8.30;4.97;;;3.20;99.90;;;;;;5041102;28;20709;-80
2021/04/15 03:47:40;;;;;;;7.85;3.90;;;3.20;99.90;;;;;;5039502;28;20188;-79
2021/04/15 03:50:10;;;;;;;5.45;4.93;;;3.10;99.90;;;;;;5039431;28;20228;-80
2021/04/15 03:52:42;;;;;;;5.63;4.18;;;3.00;99.90;;;;;;5039610;28;20194;-80
2021/04/15 03:55:17;;;;;;;7.45;4.57;;;2.90;99.90;;;;;;5041078;28;20215;-79
2021/04/15 03:57:46;;;;;;;11.52;4.40;;;2.90;99.90;;;;;;5048921;28;20634;-78
2021/04/15 04:00:17;;;;;;;7.78;4.07;;;3.10;99.90;;;;;;5048084;28;20231;-79
2021/04/15 04:02:46;;;;;;;11.18;3.53;;;3.00;99.90;;;;;;5045784;28;20246;-80
2021/04/15 04:05:17;;;;;;;8.35;4.20;;;3.00;99.90;;;;;;5039370;28;20211;-80
2021/04/15 04:07:46;;;;;;;6.05;4.50;;;3.00;99.90;;;;;;5040456;28;20647;-79
2021/04/15 04:10:18;;;;;;;7.18;4.20;;;2.90;99.90;;;;;;5037396;28;20916;-79
2021/04/15 04:12:47;;;;;;;6.72;4.22;;;3.00;99.90;;;;;;5037697;28;20685;-80
2021/04/15 04:15:19;;;;;;;5.60;3.70;;;3.10;99.90;;;;;;5038009;28;20469;-80
2021/04/15 04:18:03;;;;;;;3.83;3.50;;;3.20;99.90;;;;;;5037087;28;20489;-79
2021/04/15 04:20:30;;;;;;;8.05;4.25;;;3.00;99.90;;;;;;5036250;28;20475;-80
2021/04/15 04:22:59;;;;;;;7.13;4.57;;;3.00;99.90;;;;;;5036841;28;20259;-80
2021/04/15 04:25:30;;;;;;;4.35;3.70;;;3.10;99.90;;;;;;5037850;28;20645;-80
2021/04/15 04:28:02;;;;;;;7.03;4.25;;;3.10;99.90;;;;;;5037054;28;20997;-80
2021/04/15 04:30:34;;;;;;;9.68;5.57;;;3.10;99.90;;;;;;5037727;28;20310;-80
2021/04/15 04:33:03;;;;;;;8.60;4.50;;;3.10;99.90;;;;;;5037767;28;20192;-80
2021/04/15 04:35:33;;;;;;;7.70;4.25;;;3.10;99.90;;;;;;5036897;28;20242;-80
2021/04/15 04:38:05;;;;;;;8.43;3.85;;;3.00;99.90;;;;;;5037149;28;20604;-80
2021/04/15 04:40:34;;;;;;;7.80;4.32;;;3.10;99.90;;;;;;5036677;28;20628;-79
2021/04/15 04:43:06;;;;;;;7.18;3.75;;;3.10;99.90;;;;;;5036347;28;20259;-79
2021/04/15 04:45:33;;;;;;;8.07;4.07;;;3.20;99.90;;;;;;5037272;28;20606;-79
2021/04/15 04:48:03;;;;;;;9.45;4.28;;;2.80;99.90;;;;;;5045557;28;20204;-78
2021/04/15 04:50:36;;;;;;;4.45;3.78;;;3.20;99.90;;;;;;5040911;28;20627;-80
2021/04/15 04:53:08;;;;;;;4.80;3.92;;;3.20;99.90;;;;;;5045506;28;20184;-80
2021/04/15 04:55:40;;;;;;;8.40;4.65;;;3.30;99.90;;;;;;5051877;28;20192;-81
2021/04/15 04:58:12;;;;;;;8.85;4.35;;;3.60;99.90;;;;;;5048681;28;20198;-78
2021/04/15 05:00:43;;;;;;;6.80;6.28;;;3.30;99.90;;;;;;5042325;28;20246;-78
2021/04/15 05:03:09;;;;;;;7.38;5.20;;;3.40;99.90;;;;;;5037468;28;20204;-78
2021/04/15 05:05:35;;;;;;;7.13;3.92;;;3.30;99.90;;;;;;5036584;28;20207;-78
2021/04/15 05:08:05;;;;;;;9.07;4.43;;;3.50;99.90;;;;;;5036037;28;20207;-79
2021/04/15 05:10:32;;;;;;;6.45;4.78;;;3.40;99.90;;;;;;5036855;28;20195;-79
2021/04/15 05:13:08;;;;;;;7.57;3.95;;;3.50;99.90;;;;;;5036760;28;20693;-78
2021/04/15 05:15:34;;;;;;;4.72;3.38;;;3.60;99.90;;;;;;5036947;28;20708;-79
2021/04/15 05:18:01;;;;;;;7.00;4.00;;;3.50;99.90;;;;;;5037461;28;20207;-78
2021/04/15 05:20:27;;;;;;;6.95;4.50;;;3.70;99.90;;;;;;5036670;28;20246;-79
2021/04/15 05:22:58;;;;;;;7.95;4.70;;;3.60;99.90;;;;;;5038196;28;20228;-79
2021/04/15 05:25:31;;;;;;;4.70;3.65;;;3.60;99.90;;;;;;5038509;28;20188;-79
2021/04/15 05:27:57;;;;;;;11.98;4.40;;;3.60;99.90;;;;;;5036112;28;20227;-78
2021/04/15 05:30:35;;;;;;;5.78;3.97;;;3.70;99.90;;;;;;5036295;28;20207;-78
2021/04/15 05:33:06;;;;;;;8.77;3.35;;;3.60;99.90;;;;;;5036317;28;20207;-81
2021/04/15 05:35:37;;;;;;;7.18;4.60;;;3.60;99.90;;;;;;5035502;28;20265;-79
2021/04/15 05:38:05;;;;;;;7.22;3.30;;;3.50;99.90;;;;;;5038678;28;20545;-79
2021/04/15 05:40:31;;;;;;;5.40;3.67;;;3.70;99.90;;;;;;5038293;28;20211;-81
2021/04/15 05:43:09;;;;;;;6.70;4.53;;;3.80;99.90;;;;;;5037492;28;20268;-80
2021/04/15 05:45:38;;;;;;;5.78;3.95;;;3.90;99.90;;;;;;5036677;28;20581;-81
2021/04/15 05:48:10;;;;;;;6.05;3.50;;;3.70;99.90;;;;;;5035979;28;20266;-79
2021/04/15 05:50:40;;;;;;;11.52;4.82;;;3.90;99.90;;;;;;5036131;28;20192;-79
2021/04/15 05:53:12;;;;;;;3.40;3.05;;;4.00;99.90;;;;;;5035491;28;20366;-78
2021/04/15 05:55:42;;;;;;;3.47;2.72;;;3.90;99.90;;;;;;5036397;28;20227;-79
2021/04/15 05:58:12;;;;;;;10.52;4.25;;;3.90;99.90;;;;;;5037651;28;20188;-77
2021/04/15 06:00:43;;;;;;;3.80;3.47;;;3.90;99.90;;;;;;5041727;28;20207;-81
2021/04/15 06:03:18;;;;;;;5.22;3.50;;;3.90;99.90;;;;;;5037743;28;20247;-80
2021/04/15 06:05:53;;;;;;;6.57;2.83;;;4.00;99.90;;;;;;5037111;28;20553;-79
2021/04/15 06:08:22;;;;;;;3.30;3.00;;;4.00;99.90;;;;;;5036473;28;20223;-80
2021/04/15 06:10:51;;;;;;;5.07;2.40;;;4.10;99.90;;;;;;5036214;28;20689;-80
2021/04/15 06:13:24;;;;;;;4.10;3.10;;;4.10;99.90;;;;;;5035742;28;20199;-79
2021/04/15 06:15:58;;;;;;;5.65;3.80;;;4.30;99.90;;;;;;5035151;28;20310;-79
2021/04/15 06:21:05;;;;;;;3.85;3.35;;;4.20;99.90;;;;;;5065064;28;20206;-85
2021/04/15 06:23:38;;;;;;;7.55;2.85;;;4.20;99.90;;;;;;5066968;28;20235;-85
2021/04/15 06:26:06;;;;;;;18.83;3.90;;;4.20;99.90;;;;;;5063420;28;20218;-85
2021/04/15 06:28:38;;;;;;;5.00;3.20;;;3.90;99.90;;;;;;5066826;28;20192;-86
2021/04/15 06:31:24;;;;;;;4.43;2.90;;;3.70;99.90;;;;;;5047252;28;20287;-86
2021/04/15 06:33:53;;;;;;;3.63;3.00;;;3.80;99.90;;;;;;5047677;28;20214;-85
2021/04/15 06:36:33;;;;;;;4.13;2.60;;;4.00;99.90;;;;;;5057268;28;20192;-86
2021/04/15 06:39:08;;;;;;;4.30;3.03;;;4.30;99.90;;;;;;5025697;28;20223;-85
2021/04/15 06:42:19;;;;;;;2.88;2.67;;;4.10;99.90;;;;;;5040266;28;20261;-86
2021/04/15 06:45:18;;;;;;;3.90;2.80;;;4.20;99.90;;;;;;4966327;29;20206;-86
2021/04/15 06:48:04;;;;;;;3.75;2.58;;;4.40;99.90;;;;;;4964986;28;20195;-86
2021/04/15 06:50:40;;;;;;;3.30;3.10;;;4.30;99.90;;;;;;5035987;28;20278;-85
2021/04/15 06:53:22;;;;;;;5.32;3.95;;;4.40;99.90;;;;;;5044838;28;20207;-85
2021/04/15 06:56:06;;;;;;;7.95;3.17;;;4.50;99.90;;;;;;5047610;28;20188;-86
2021/04/15 06:58:52;;;;;;;4.43;3.45;;;4.60;99.90;;;;;;5044634;28;20191;-84
2021/04/15 07:01:53;;;;;;;7.65;3.17;;;4.50;99.90;;;;;;5046470;28;20187;-85
2021/04/15 07:04:24;;;;;;;3.33;2.90;;;5.00;99.90;;;;;;4984774;28;20197;-86
2021/04/15 07:06:59;;;;;;;3.45;2.65;;;4.60;99.90;;;;;;5039162;28;20212;-86
2021/04/15 07:10:14;;;;;;;3.72;3.20;;;4.50;99.90;;;;;;5058011;28;20220;-84
2021/04/15 07:13:19;;;;;;;4.00;2.80;;;4.60;99.90;;;;;;5038249;28;20207;-86
2021/04/15 07:16:06;;;;;;;6.30;3.20;;;4.70;99.90;;;;;;5029649;28;20211;-85
2021/04/15 07:18:57;;;;;;;2.90;2.70;;;4.60;99.90;;;;;;5039692;28;20207;-86
2021/04/15 07:21:38;;;;;;;4.50;3.10;;;4.90;99.90;;;;;;5042846;28;20571;-85
2021/04/15 07:24:29;;;;;;;2.80;2.60;;;5.10;99.90;;;;;;5044488;28;20206;-86
2021/04/15 07:27:23;;;;;;;5.18;2.30;;;4.90;99.90;;;;;;5045837;28;20230;-86
2021/04/15 07:30:15;;;;;;;3.00;2.70;;;4.90;99.90;;;;;;5051080;28;20265;-86
2021/04/15 07:32:52;;;;;;;3.90;2.45;;;5.10;99.90;;;;;;5034263;28;20199;-85
2021/04/15 07:35:34;;;;;;;3.78;2.15;;;4.80;99.90;;;;;;5048063;28;20188;-85
2021/04/15 07:38:34;;;;;;;3.05;1.90;;;5.10;99.90;;;;;;5046035;28;20195;-86
2021/04/15 07:41:25;;;;;;;4.72;2.45;;;5.20;99.90;;;;;;5011101;28;20623;-86
2021/04/15 07:44:25;;;;;;;3.10;2.20;;;5.20;99.90;;;;;;5042436;28;20211;-85
2021/04/15 07:47:04;;;;;;;2.28;2.08;;;5.30;99.90;;;;;;5041558;28;20244;-84
2021/04/15 07:50:12;;;;;;;4.72;2.70;;;5.20;99.90;;;;;;5041960;28;20227;-85
2021/04/15 07:53:11;;;;;;;1.42;1.30;;;5.50;99.90;;;;;;5042244;28;20625;-85
2021/04/15 07:55:47;;;;;;;4.10;1.77;;;5.70;99.90;;;;;;5052096;28;20207;-85
2021/04/15 07:58:42;;;;;;;2.17;2.00;;;5.60;99.90;;;;;;5059175;28;20167;-85
2021/04/15 08:01:27;;;;;;;2.15;2.05;;;5.50;99.90;;;;;;5049847;28;20212;-85
2021/04/15 08:04:10;;;;;;;3.22;1.75;;;5.70;99.90;;;;;;5049609;28;20257;-85
2021/04/15 08:06:51;;;;;;;4.78;1.73;;;5.90;99.90;;;;;;5050180;28;20192;-85
2021/04/15 08:09:34;;;;;;;5.07;1.83;;;6.40;99.90;;;;;;5051300;28;20239;-85
2021/04/15 08:12:35;;;;;;;1.60;1.50;;;5.90;99.90;;;;;;5057585;28;20188;-85
2021/04/15 08:15:23;;;;;;;1.58;1.48;;;5.80;99.90;;;;;;5048808;28;20267;-85
2021/04/15 08:18:12;;;;;;;4.03;1.35;;;6.00;99.90;;;;;;5047700;28;20189;-85
2021/04/15 08:21:05;;;;;;;8.73;2.05;;;5.80;99.90;;;;;;5040053;28;20219;-85
2021/04/15 08:23:57;;;;;;;5.57;2.00;;;5.90;99.90;;;;;;5046436;28;20273;-85
2021/04/15 08:26:41;;;;;;;1.60;1.50;;;6.40;99.90;;;;;;5047143;28;20202;-85
2021/04/15 08:29:21;;;;;;;4.15;2.08;;;6.50;99.90;;;;;;5055547;28;20242;-84
2021/04/15 08:32:01;;;;;;;1.80;1.70;;;6.40;99.90;;;;;;5049502;28;20221;-85
2021/04/15 08:34:36;;;;;;;2.03;1.30;;;6.40;99.90;;;;;;5042509;28;20188;-86
2021/04/15 08:37:21;;;;;;;2.83;1.83;;;6.60;99.90;;;;;;5042092;28;20191;-85
2021/04/15 08:40:01;;;;;;;2.35;1.40;;;6.60;99.90;;;;;;5041583;28;20227;-86
2021/04/15 08:42:37;;;;;;;2.63;2.00;;;6.40;99.90;;;;;;5042008;28;20223;-86
2021/04/15 08:45:36;;;;;;;2.35;1.45;;;6.40;99.90;;;;;;5040920;28;20214;-86
2021/04/15 08:48:29;;;;;;;5.07;2.35;;;6.50;99.90;;;;;;5034782;28;20214;-84
2021/04/15 08:51:03;;;;;;;2.30;1.27;;;6.50;99.90;;;;;;5020370;28;20208;-85
2021/04/15 08:54:00;;;;;;;1.60;1.48;;;6.90;99.90;;;;;;5049393;28;20183;-85
2021/04/15 08:56:31;;;;;;;2.08;1.55;;;6.50;99.90;;;;;;5044037;28;20647;-85
2021/04/15 08:59:10;;;;;;;2.65;1.60;;;6.60;99.90;;;;;;5042533;28;20231;-85
2021/04/15 09:01:46;;;;;;;5.47;2.28;;;6.70;99.90;;;;;;5043673;28;20200;-85
2021/04/15 09:04:18;;;;;;;1.88;1.63;;;6.90;99.90;;;;;;5041520;28;20195;-85
2021/04/15 09:06:53;;;;;;;1.88;1.30;;;6.70;99.90;;;;;;5042086;28;20246;-86
2021/04/15 09:09:36;;;;;;;1.92;1.50;;;6.60;99.90;;;;;;5043804;28;20234;-86
2021/04/15 09:12:18;;;;;;;7.60;1.67;;;6.80;99.90;;;;;;5051266;28;20195;-85
2021/04/15 09:14:58;;;;;;;1.30;1.20;;;7.20;99.90;;;;;;5043754;28;20184;-86
2021/04/15 09:17:31;;;;;;;3.30;1.60;;;7.30;99.90;;;;;;5043501;28;20255;-86
2021/04/15 09:20:07;;;;;;;1.55;1.45;;;7.30;99.90;;;;;;5044468;28;20239;-84
2021/04/15 09:22:55;;;;;;;4.72;1.45;;;7.10;99.90;;;;;;5042345;28;20211;-84
2021/04/15 09:25:28;;;;;;;1.33;1.08;;;7.00;99.90;;;;;;5041888;28;20192;-86
2021/04/15 09:28:02;;;;;;;1.55;1.35;;;7.20;99.90;;;;;;5042375;28;20213;-85
2021/04/15 09:30:49;;;;;;;3.53;1.23;;;7.30;99.90;;;;;;5036861;28;20215;-85
2021/04/15 09:33:31;;;;;;;1.60;1.13;;;7.70;99.90;;;;;;5054498;28;20195;-84
2021/04/15 09:36:05;;;;;;;1.30;1.20;;;7.50;99.90;;;;;;5057128;28;20209;-84
2021/04/15 09:39:10;;;;;;;1.60;1.08;;;7.70;99.90;;;;;;5057895;28;20184;-85
2021/04/15 09:41:48;;;;;;;2.35;1.20;;;7.50;99.90;;;;;;5058145;28;20346;-86
2021/04/15 09:44:30;;;;;;;1.27;1.17;;;7.60;99.90;;;;;;5057906;28;20222;-86
2021/04/15 09:47:01;;;;;;;1.35;1.25;;;7.80;99.90;;;;;;5057882;28;20184;-86
2021/04/15 09:49:42;;;;;;;1.92;1.33;;;7.80;99.90;;;;;;5057776;28;20250;-85
2021/04/15 09:52:45;;;;;;;2.38;1.35;;;7.50;99.90;;;;;;5053894;28;20253;-86
2021/04/15 09:55:29;;;;;;;2.95;1.67;;;6.20;99.90;;;;;;5020689;28;20207;-85
2021/04/15 09:58:08;;;;;;;3.00;1.38;;;7.50;99.90;;;;;;5050824;28;20187;-86
2021/04/15 10:00:38;;;;;;;2.15;1.00;;;7.50;99.90;;;;;;5056974;28;20220;-86
2021/04/15 10:03:21;;;;;;;1.42;1.33;;;7.60;99.90;;;;;;5047209;28;20219;-85
2021/04/15 10:05:59;;;;;;;1.73;1.15;;;8.00;99.90;;;;;;5047333;28;20203;-85
2021/04/15 10:08:35;;;;;;;1.00;1.00;;;7.70;99.10;;;;;;5045578;28;20223;-85
2021/04/15 10:11:11;;;;;;;1.13;1.02;;;8.40;99.90;;;;;;5046516;28;20191;-85
2021/04/15 10:13:45;;;;;;;1.10;1.00;;;8.00;98.20;;;;;;5042892;28;20187;-85
2021/04/15 10:16:18;;;;;;;2.33;0.90;;;7.40;96.80;;;;;;5057297;28;20172;-84
2021/04/15 10:19:29;;;;;;;1.17;1.08;;;7.40;99.90;;;;;;5057560;28;20188;-85
2021/04/15 10:22:01;;;;;;;2.65;1.10;;;7.60;99.90;;;;;;5059606;28;20168;-87
2021/04/15 10:24:37;;;;;;;3.83;1.00;;;7.20;95.40;;;;;;5061722;28;20180;-85
2021/04/15 10:27:38;;;;;;;1.33;1.02;;;6.90;99.90;;;;;;5061236;28;20187;-86
2021/04/15 10:30:46;;;;;;;1.40;1.30;;;7.40;96.00;;;;;;5060732;28;20206;-84
2021/04/15 10:33:41;;;;;;;1.50;1.10;;;7.50;95.30;;;;;;4974251;28;20213;-85
2021/04/15 10:36:49;;;;;;;4.50;1.00;;;7.90;95.20;;;;;;5047653;28;20207;-85
2021/04/15 10:39:30;;;;;;;1.13;1.00;;;7.70;95.80;;;;;;5045141;28;20216;-84
2021/04/15 10:42:29;;;;;;;6.15;1.15;;;7.50;95.90;;;;;;5045331;28;20558;-85
2021/04/15 10:45:17;;;;;;;1.00;1.00;;;7.60;95.30;;;;;;5045526;28;20184;-85
2021/04/15 10:48:02;;;;;;;0.90;0.90;;;7.40;96.10;;;;;;5045497;28;20191;-84
2021/04/15 10:50:35;;;;;;;1.92;1.10;;;7.10;95.60;;;;;;5054174;28;20223;-84
2021/04/15 10:53:08;;;;;;;1.52;1.13;;;7.20;95.30;;;;;;5057945;28;20183;-85
2021/04/15 10:55:44;;;;;;;3.45;1.48;;;8.30;96.00;;;;;;5053157;28;20241;-85
2021/04/15 10:58:33;;;;;;;1.20;0.90;;;7.00;95.30;;;;;;5050277;28;20188;-85
2021/04/15 11:01:20;;;;;;;1.25;1.15;;;7.30;95.30;;;;;;5049179;28;20176;-85
2021/04/15 11:03:51;;;;;;;1.65;0.90;;;7.50;99.90;;;;;;5043953;28;20211;-85
2021/04/15 11:06:50;;;;;;;2.90;1.23;;;7.40;95.50;;;;;;5043768;28;20207;-85
2021/04/15 11:09:19;;;;;;;1.23;1.02;;;7.50;94.80;;;;;;5043965;28;20219;-85
2021/04/15 11:11:57;;;;;;;1.35;1.25;;;7.50;95.10;;;;;;5042397;28;20239;-85
2021/04/15 11:14:25;;;;;;;1.60;1.50;;;7.80;94.10;;;;;;5051927;28;20207;-86
2021/04/15 11:16:55;;;;;;;1.77;1.00;;;8.10;94.60;;;;;;5054213;28;20306;-85
2021/04/15 11:19:25;;;;;;;0.85;0.85;;;7.70;95.30;;;;;;5052400;28;20278;-85
2021/04/15 11:21:54;;;;;;;1.35;1.25;;;7.70;95.20;;;;;;5051798;28;20188;-85
2021/04/15 11:24:29;;;;;;;2.05;0.90;;;7.40;95.80;;;;;;5049158;28;20273;-84
2021/04/15 11:26:57;;;;;;;3.13;2.50;;;7.50;96.90;;;;;;5047783;28;20187;-85
2021/04/15 11:29:27;;;;;;;5.32;1.35;;;7.40;97.20;;;;;;5045692;28;20718;-84
2021/04/15 11:31:57;;;;;;;1.25;1.13;;;7.70;97.00;;;;;;5046016;28;20237;-84
2021/04/15 11:34:25;;;;;;;1.15;1.05;;;7.20;97.10;;;;;;5044803;28;20576;-84
2021/04/15 11:37:05;;;;;;;0.88;0.88;;;7.30;98.00;;;;;;5045509;28;20777;-84
2021/04/15 11:39:36;;;;;;;2.65;1.13;;;7.20;99.90;;;;;;5047183;28;20230;-86
2021/04/15 11:42:07;;;;;;;1.00;1.00;;;7.40;98.10;;;;;;5044775;28;20215;-85
2021/04/15 11:44:37;;;;;;;3.45;1.50;;;7.60;97.90;;;;;;5048662;28;20251;-84
2021/04/15 11:47:12;;;;;;;0.82;0.82;;;7.40;97.90;;;;;;5058894;28;20203;-85
2021/04/15 11:49:42;;;;;;;2.35;1.15;;;7.50;98.60;;;;;;5052738;28;20219;-84
2021/04/15 11:52:28;;;;;;;1.90;1.10;;;7.40;99.50;;;;;;5049690;28;20662;-84
2021/04/15 11:55:07;;;;;;;0.95;0.95;;;7.20;99.90;;;;;;5058388;28;20171;-84
2021/04/15 11:57:36;;;;;;;1.10;1.00;;;7.20;99.90;;;;;;5055913;28;20237;-83
2021/04/15 12:00:21;;;;;;;2.65;1.23;;;7.00;99.90;;;;;;5048566;28;20247;-84
2021/04/15 12:03:04;;;;;;;1.95;0.98;;;7.20;99.90;;;;;;5054330;28;20223;-84
2021/04/15 12:05:32;;;;;;;1.45;1.10;;;7.10;99.90;;;;;;5057872;28;20172;-84
2021/04/15 12:08:02;;;;;;;2.70;1.40;;;7.30;99.90;;;;;;5050744;28;20253;-84
2021/04/15 12:10:32;;;;;;;1.10;1.00;;;7.50;99.90;;;;;;5050090;28;20228;-84
2021/04/15 12:13:03;;;;;;;1.60;1.50;;;7.30;99.50;;;;;;5050925;28;20192;-83
2021/04/15 12:15:32;;;;;;;1.02;1.02;;;7.30;99.70;;;;;;5050506;28;20204;-84
2021/04/15 12:18:05;;;;;;;1.25;1.15;;;7.50;99.90;;;;;;5055899;28;20184;-83
2021/04/15 12:20:41;;;;;;;1.45;1.35;;;7.30;99.90;;;;;;5055668;28;20231;-84
2021/04/15 12:23:15;;;;;;;1.50;1.30;;;7.20;99.90;;;;;;5051888;28;20217;-84
2021/04/15 12:25:47;;;;;;;1.45;1.35;;;7.10;99.90;;;;;;5049868;28;20184;-84
2021/04/15 12:28:22;;;;;;;2.92;1.38;;;7.20;99.90;;;;;;5054631;28;20245;-84
2021/04/15 12:30:53;;;;;;;1.20;1.10;;;7.00;99.90;;;;;;5055099;28;20253;-84
2021/04/15 12:33:28;;;;;;;2.40;1.30;;;7.40;99.40;;;;;;5058204;28;20188;-84
2021/04/15 12:35:59;;;;;;;1.98;1.15;;;7.40;99.30;;;;;;5056942;28;20241;-84
2021/04/15 12:38:29;;;;;;;1.00;1.00;;;7.30;99.30;;;;;;5055349;28;20184;-83
2021/04/15 12:40:58;;;;;;;4.32;1.10;;;7.10;99.90;;;;;;5056557;28;20208;-84
2021/04/15 12:43:27;;;;;;;2.38;1.42;;;7.10;99.90;;;;;;5057801;28;20215;-84
2021/04/15 12:45:58;;;;;;;1.77;1.25;;;7.40;99.90;;;;;;5057699;28;20187;-83
2021/04/15 12:48:35;;;;;;;1.25;1.15;;;7.70;99.30;;;;;;5058277;28;20199;-82
2021/04/15 12:51:02;;;;;;;4.38;1.55;;;7.60;98.20;;;;;;5056755;28;20171;-82
2021/04/15 12:53:31;;;;;;;1.27;1.08;;;7.50;97.90;;;;;;5056456;28;20234;-84
2021/04/15 12:55:57;;;;;;;1.30;1.20;;;7.50;97.90;;;;;;5053245;28;20231;-83
2021/04/15 12:58:24;;;;;;;2.45;1.20;;;7.60;98.80;;;;;;5055973;28;20203;-83
2021/04/15 13:00:56;;;;;;;1.85;1.75;;;6.20;98.70;;;;;;5055102;28;20247;-80
2021/04/15 13:03:26;;;;;;;2.15;1.08;;;7.70;99.90;;;;;;5055169;28;20219;-83
2021/04/15 13:06:02;;;;;;;1.58;1.10;;;7.80;99.90;;;;;;5053299;28;20234;-83
2021/04/15 13:08:45;;;;;;;5.93;1.10;;;8.20;99.90;;;;;;5051014;28;20291;-84
2021/04/15 13:11:32;;;;;;;2.40;1.48;;;8.00;97.40;;;;;;5051437;28;20188;-83
2021/04/15 13:14:00;;;;;;;3.15;1.30;;;8.30;96.90;;;;;;5050150;28;20188;-84
2021/04/15 13:16:52;;;;;;;2.30;1.50;;;8.30;97.10;;;;;;5049973;28;20208;-83
2021/04/15 13:19:37;;;;;;;1.40;1.08;;;8.10;96.60;;;;;;5033777;28;20239;-84
2021/04/15 13:22:10;;;;;;;2.25;1.23;;;7.80;95.90;;;;;;5048661;28;20553;-83
2021/04/15 13:25:04;;;;;;;1.38;1.27;;;7.80;95.20;;;;;;5049389;28;20232;-84
2021/04/15 13:27:45;;;;;;;6.35;1.80;;;8.00;99.90;;;;;;5049307;28;20214;-83
2021/04/15 13:30:27;;;;;;;2.38;1.05;;;7.90;95.60;;;;;;5045808;28;20231;-83
2021/04/15 13:33:07;;;;;;;2.20;1.60;;;7.90;95.40;;;;;;5045049;28;20192;-83
2021/04/15 13:35:53;;;;;;;1.67;1.55;;;8.00;95.70;;;;;;5047857;28;20355;-83
2021/04/15 13:39:03;;;;;;;2.78;1.42;;;8.00;94.80;;;;;;5047880;28;20295;-84
2021/04/15 13:41:55;;;;;;;10.98;1.23;;;7.20;99.90;;;;;;4967967;29;20222;-84
2021/04/15 13:44:50;;;;;;;1.17;1.08;;;7.90;93.90;;;;;;4967919;29;20250;-84
2021/04/15 13:47:51;;;;;;;1.77;1.67;;;7.90;93.40;;;;;;5039310;28;20215;-84
2021/04/15 13:50:22;;;;;;;2.40;1.10;;;8.00;92.90;;;;;;5047441;28;20257;-83